Terminal Aerodrome Forecast
Issued by NWS

Home | Current Version | Previous Version | Text Only | Print | Product List | Glossary On
Versions: 1 2 3 4 5 6 7 8 9 10 11 12 13 14 15
000
FTUS44 KLZK 191100
TAFPBF
TAF
KPBF 191120Z 1912/2012 04006KT P6SM SCT006 OVC015
      TEMPO 1912/1916 5SM BR BKN008
     FM191600 04006KT 5SM BR VCSH BKN006 OVC015
      TEMPO 1916/1920 -RADZ
     FM200000 04004KT P6SM SCT008 BKN015 PROB30 2006/2012 5SM -DZ BR
      OVC008=

USA.gov is the U.S. government's official web portal to all federal, state and local government web resources and services.